Terminal Aerodrome Forecast
Issued by NWS Sioux Falls, SD

Home | Current Version | Previous Version | Text Only | Print | Product List | Glossary On
Versions: 1 2 3 4 5 6 7 8 9 10 11 12 13 14 15 16 17 18 19 20 21 22 23 24 25 26 27 28 29 30
000
FTUS43 KFSD 192300
TAFSUX
TAF
KSUX 192337Z 2000/2024 VRB05KT P6SM FEW140
     FM200300 12005KT P6SM SCT140 SCT200
     FM200800 12010KT P6SM BKN050
      TEMPO 2009/2013 SHRA
     FM201500 15013G18KT P6SM SCT080 BKN150=

USA.gov is the U.S. government's official web portal to all federal, state and local government web resources and services.